El Toro, CA (92610)

1:14 AM PDT on August 31, 2014 (GMT -0700)
Foothill Ranch, CA | Change Station
CLOSE
Current Station
Personal Weather Station
Location: Foothill Ranch, CA
Elevation: 969 ft
Nearby Weather Stations
Active Advisory: Beach Hazard Statement

Elev 969 ft 33.69 °N, 117.66 °W | Updated 4 seconds ago

Clear
Clear
68.9 °F
Feels Like 68.9 °F
N
0.0
Wind Variable Wind from West
Gusts 0.0 mph

Today
High -- | Low -- °F
--% Chance of Precip.
Yesterday
High -- | Low -- °F
Precip. -- in
6:23 AM 7:17 PM
Waxing Crescent, 29% visible
Pressure 29.78 in
Visibility 10.0 miles
Clouds Clear
Dew Point 56 °F
Humidity 64%
Rainfall 0.00 in
Snow Depth Not available.
UV 0.0 out of 12
Pollen 8.20 out of 12
Ozone Good
PM2.5 Moderate
Flu Activity Not available.
METAR KSNA 310753Z AUTO 21004KT 10SM CLR 23/19 A2978 RMK AO2 SLP082 T02280194 403000206 TSNO

More Conditions Fewer Conditions

Pressure 29.78 in
Visibility 10.0 miles
Clouds Clear
Dew Point 56 °F
Humidity 64%
Rainfall 0.00 in
Snow Depth Not available.
UV 0.0 out of 12
Pollen 8.20 out of 12
Ozone Good
PM2.5 Moderate
Flu Activity Not available.
METAR KSNA 310753Z AUTO 21004KT 10SM CLR 23/19 A2978 RMK AO2 SLP082 T02280194 403000206 TSNO

More Conditions Fewer Conditions

10-Day Weather Forecast

Almanac

Astronomy

Aug. 31, 2014 Rise Set
Actual Time 6:23 AM PDT 7:17 PM PDT
Civil Twilight 5:58 AM PDT 7:42 PM PDT
Nautical Twilight 5:28 AM PDT 8:12 PM PDT
Astronomical Twilight 4:57 AM PDT 8:43 PM PDT
Moon 11:57 AM PDT 10:53 PM PDT
Length of Visible Light 13h 44m
Length of Day
12h 53m
Tomorrow will be 2m 0s shorter.
Waxing Crescent, 29% of the Moon is Illuminated
Today
Waxing Crescent
Sep 2
First Quarter
Sep 8
Full
Sep 15
Last Quarter
Sep 24
New

Today's Extremes

State Highs State Lows

Community

WunderPhotos

Upload Photos

1,748,820 photos uploaded!

Nearby

Air Quality

  Air Quality AQ Index Pollutant
Yesterday Good
PM10
Yesterday Good
OZONE
Current Moderate
PM2.5
Current Good
OZONE
Sunday Moderate
OZONE
Sunday Good
PM10
Sunday Good
CO
Sunday Good
NO2

Snow Depth

Station Depth Elevation
Leavitt Lake 1 in 9400 ft
Leavitt Meadows 1 in 7200 ft
Summit Meadow 1 in 9122 ft
Monitor Pass 0 in 8350 ft
Blue Lakes 0 in 8000 ft

Earthquake Activity

City Distance Mag. Time & Date
Malibu, California 84 miles 2.5 8:11 AM PDT
2014-08-30
Minimum magnitude displayed is 2.5.

Coastal Water Temperatures

Place Temperature
Santa Monica Pier 69.1 °F
Los Angeles, CA 66.9 °F
La Jolla, CA 75.0 °F

Nearby Weather Stations